createdAt,value
2016-09-02T00:00:39.212Z,959.97
2016-09-02T00:01:39.339Z,959.93
2016-09-02T00:02:39.200Z,959.93
2016-09-02T00:03:39.350Z,959.92
2016-09-02T00:04:39.190Z,959.93
2016-09-02T00:05:39.320Z,959.97
2016-09-02T00:06:39.206Z,959.96
2016-09-02T00:07:39.214Z,959.98
2016-09-02T00:08:39.215Z,959.95
2016-09-02T00:09:39.197Z,959.99
2016-09-02T00:10:39.183Z,960.01
2016-09-02T00:11:39.185Z,959.96
2016-09-02T00:12:39.183Z,959.95
2016-09-02T00:13:39.171Z,959.92
2016-09-02T00:14:39.160Z,959.92
2016-09-02T00:15:39.160Z,959.95
2016-09-02T00:16:39.152Z,959.92
2016-09-02T00:17:39.148Z,959.9
2016-09-02T00:18:39.160Z,959.91
2016-09-02T00:19:39.041Z,959.92
2016-09-02T00:20:39.032Z,959.9
2016-09-02T00:21:39.026Z,959.91
2016-09-02T00:22:39.166Z,959.9
2016-09-02T00:23:39.019Z,959.86
2016-09-02T00:24:39.007Z,959.9
2016-09-02T00:25:39.169Z,959.87
2016-09-02T00:26:38.997Z,959.87
2016-09-02T00:27:38.992Z,959.86
2016-09-02T00:28:38.985Z,959.91
2016-09-02T00:29:38.980Z,959.9
2016-09-02T00:30:38.980Z,959.91
2016-09-02T00:31:38.981Z,959.9
2016-09-02T00:32:38.965Z,959.89
2016-09-02T00:33:38.956Z,959.88
2016-09-02T00:34:38.949Z,959.91
2016-09-02T00:35:38.948Z,959.94
2016-09-02T00:36:38.939Z,959.92
2016-09-02T00:37:38.933Z,959.94
2016-09-02T00:38:38.930Z,959.93
2016-09-02T00:39:38.922Z,959.93
2016-09-02T00:40:38.918Z,959.94
2016-09-02T00:41:38.911Z,959.95
2016-09-02T00:42:38.907Z,959.94
2016-09-02T00:43:38.903Z,959.96
2016-09-02T00:44:38.892Z,959.98
2016-09-02T00:45:38.889Z,959.98
2016-09-02T00:46:38.884Z,960
2016-09-02T00:47:38.877Z,960.01
2016-09-02T00:48:38.875Z,960
2016-09-02T00:49:38.863Z,960.05
2016-09-02T00:50:38.862Z,960.03
2016-09-02T00:51:38.854Z,960.04
2016-09-02T00:52:38.846Z,960.03
2016-09-02T00:53:38.843Z,960.03
2016-09-02T00:54:38.835Z,960.05
2016-09-02T00:55:38.841Z,960.03
2016-09-02T00:56:38.821Z,960.05
2016-09-02T00:57:38.815Z,960.04
2016-09-02T00:58:38.814Z,960.06
2016-09-02T00:59:38.803Z,960.04
2016-09-02T01:00:38.799Z,960.01
2016-09-02T01:01:38.790Z,960.03
2016-09-02T01:02:38.790Z,960.02
2016-09-02T01:03:38.782Z,960.04
2016-09-02T01:04:38.775Z,960.04
2016-09-02T01:05:38.768Z,960.06
2016-09-02T01:06:38.764Z,960.02
2016-09-02T01:07:38.757Z,960.01
2016-09-02T01:08:38.751Z,960.05
2016-09-02T01:09:38.743Z,960.02
2016-09-02T01:10:38.742Z,960.04
2016-09-02T01:11:38.736Z,960.04
2016-09-02T01:12:38.723Z,960.04
2016-09-02T01:13:38.724Z,960.07
2016-09-02T01:14:38.728Z,960.01
2016-09-02T01:15:38.708Z,960
2016-09-02T01:16:38.706Z,960.03
2016-09-02T01:17:38.694Z,960.07
2016-09-02T01:18:38.693Z,960.04
2016-09-02T01:19:38.683Z,960.05
2016-09-02T01:20:38.680Z,960.07
2016-09-02T01:21:38.678Z,960.02
2016-09-02T01:22:38.665Z,960.01
2016-09-02T01:23:38.661Z,959.99
2016-09-02T01:24:38.654Z,960.02
2016-09-02T01:25:38.647Z,960
2016-09-02T01:26:38.643Z,960.01
2016-09-02T01:27:38.635Z,960
2016-09-02T01:28:38.643Z,960.03
2016-09-02T01:29:38.627Z,960
2016-09-02T01:30:38.617Z,960.01
2016-09-02T01:31:38.613Z,959.98
2016-09-02T01:32:38.608Z,959.99
2016-09-02T01:33:38.603Z,960
2016-09-02T01:34:38.597Z,960.02
2016-09-02T01:35:38.587Z,960.01
2016-09-02T01:36:38.584Z,960.05
2016-09-02T01:37:38.576Z,960.05
2016-09-02T01:38:38.569Z,960.06
2016-09-02T01:39:38.566Z,960.05
2016-09-02T01:40:38.556Z,960.08
2016-09-02T01:41:38.550Z,960.05
2016-09-02T01:42:38.551Z,960.08
2016-09-02T01:43:38.537Z,960.06
2016-09-02T01:44:38.538Z,960.07
2016-09-02T01:45:38.525Z,960.02
2016-09-02T01:46:38.520Z,959.99
2016-09-02T01:47:38.513Z,959.98
2016-09-02T01:48:38.507Z,959.97
2016-09-02T01:49:38.523Z,959.94
2016-09-02T01:50:38.493Z,959.94
2016-09-02T01:51:38.490Z,959.97
2016-09-02T01:52:38.481Z,959.95
2016-09-02T01:53:38.476Z,959.92
2016-09-02T01:54:38.471Z,959.89
2016-09-02T01:55:38.464Z,959.89
2016-09-02T01:56:38.460Z,959.84
2016-09-02T01:57:38.455Z,959.83
2016-09-02T01:58:38.449Z,959.85
2016-09-02T01:59:38.446Z,959.86
2016-09-02T02:00:38.431Z,959.89
2016-09-02T02:01:38.540Z,959.86
2016-09-02T02:02:38.420Z,959.88
2016-09-02T02:03:38.415Z,959.91
2016-09-02T02:04:38.407Z,959.97
2016-09-02T02:05:38.401Z,959.96
2016-09-02T02:06:38.396Z,959.97
2016-09-02T02:07:38.386Z,959.97
2016-09-02T02:08:38.382Z,959.97
2016-09-02T02:09:38.376Z,959.94
2016-09-02T02:10:38.368Z,959.91
2016-09-02T02:11:38.364Z,959.93
2016-09-02T02:12:38.359Z,959.91
2016-09-02T02:13:38.353Z,959.93
2016-09-02T02:14:38.347Z,959.96
2016-09-02T02:15:38.336Z,959.94
2016-09-02T02:16:38.331Z,959.88
2016-09-02T02:17:38.324Z,959.93
2016-09-02T02:18:38.318Z,959.89
2016-09-02T02:19:38.314Z,959.89
2016-09-02T02:20:38.308Z,959.89
2016-09-02T02:21:38.301Z,959.83
2016-09-02T02:22:38.292Z,959.84
2016-09-02T02:23:38.286Z,959.8
2016-09-02T02:24:38.278Z,959.86
2016-09-02T02:25:38.273Z,959.77
2016-09-02T02:26:38.267Z,959.8
2016-09-02T02:27:38.259Z,959.78
2016-09-02T02:28:38.255Z,959.77
2016-09-02T02:29:38.250Z,959.78
2016-09-02T02:30:38.241Z,959.81
2016-09-02T02:31:38.234Z,959.79
2016-09-02T02:32:38.226Z,959.82
2016-09-02T02:33:38.221Z,959.82
2016-09-02T02:34:38.218Z,959.81
2016-09-02T02:35:38.211Z,959.81
2016-09-02T02:36:38.207Z,959.82
2016-09-02T02:37:38.196Z,959.81
2016-09-02T02:38:38.188Z,959.82
2016-09-02T02:39:38.182Z,959.81
2016-09-02T02:40:38.174Z,959.82
2016-09-02T02:41:38.171Z,959.84
2016-09-02T02:42:38.214Z,959.82
2016-09-02T02:43:38.155Z,959.81
2016-09-02T02:44:38.148Z,959.87
2016-09-02T02:45:38.143Z,959.81
2016-09-02T02:46:38.137Z,959.83
2016-09-02T02:47:38.128Z,959.8
2016-09-02T02:48:38.121Z,959.8
2016-09-02T02:49:38.117Z,959.85
2016-09-02T02:50:38.114Z,959.8
2016-09-02T02:51:38.105Z,959.76
2016-09-02T02:52:38.095Z,959.75
2016-09-02T02:53:38.089Z,959.77
2016-09-02T02:54:38.081Z,959.76
2016-09-02T02:55:38.078Z,959.74
2016-09-02T02:56:38.072Z,959.8
2016-09-02T02:57:38.063Z,959.75
2016-09-02T02:58:38.095Z,959.77
2016-09-02T02:59:38.050Z,959.77
2016-09-02T03:00:38.043Z,959.76
2016-09-02T03:01:38.036Z,959.75
2016-09-02T03:02:38.029Z,959.7
2016-09-02T03:03:38.023Z,959.72
2016-09-02T03:04:38.016Z,959.72
2016-09-02T03:05:38.010Z,959.71
2016-09-02T03:06:38.002Z,959.69
2016-09-02T03:07:37.996Z,959.72
2016-09-02T03:08:37.990Z,959.72
2016-09-02T03:09:37.985Z,959.74
2016-09-02T03:10:37.975Z,959.75
2016-09-02T03:11:37.971Z,959.75
2016-09-02T03:12:37.962Z,959.71
2016-09-02T03:13:37.960Z,959.73
2016-09-02T03:14:37.951Z,959.73
2016-09-02T03:15:37.945Z,959.69
2016-09-02T03:16:37.935Z,959.75
2016-09-02T03:17:37.931Z,959.72
2016-09-02T03:18:37.926Z,959.69
2016-09-02T03:19:37.916Z,959.68
2016-09-02T03:20:37.915Z,959.7
2016-09-02T03:21:37.906Z,959.7
2016-09-02T03:22:37.896Z,959.72
2016-09-02T03:23:37.889Z,959.73
2016-09-02T03:24:37.882Z,959.75
2016-09-02T03:25:37.878Z,959.73
2016-09-02T03:26:37.868Z,959.77
2016-09-02T03:27:37.866Z,959.75
2016-09-02T03:28:37.862Z,959.76
2016-09-02T03:29:37.848Z,959.8
2016-09-02T03:30:37.844Z,959.81
2016-09-02T03:31:37.836Z,959.81
2016-09-02T03:32:37.829Z,959.82
2016-09-02T03:33:37.823Z,959.78
2016-09-02T03:34:37.815Z,959.83
2016-09-02T03:35:37.815Z,959.8
2016-09-02T03:36:37.801Z,959.85
2016-09-02T03:37:37.794Z,959.82
2016-09-02T03:38:37.788Z,959.86
2016-09-02T03:39:37.782Z,959.85
2016-09-02T03:40:37.774Z,959.83
2016-09-02T03:41:37.770Z,959.82
2016-09-02T03:42:37.767Z,959.79
2016-09-02T03:43:37.755Z,959.83
2016-09-02T03:44:37.748Z,959.85
2016-09-02T03:45:37.744Z,959.87
2016-09-02T03:46:37.733Z,959.83
2016-09-02T03:47:37.731Z,959.83
2016-09-02T03:48:37.720Z,959.8
2016-09-02T03:49:37.718Z,959.78
2016-09-02T03:50:37.710Z,959.77
2016-09-02T03:51:37.700Z,959.81
2016-09-02T03:52:37.691Z,959.77
2016-09-02T03:53:37.687Z,959.79
2016-09-02T03:54:37.681Z,959.82
2016-09-02T03:55:37.676Z,959.83
2016-09-02T03:56:37.667Z,959.86
2016-09-02T03:57:37.658Z,959.89
2016-09-02T03:58:37.652Z,959.91
2016-09-02T03:59:37.642Z,959.94
2016-09-02T04:00:37.637Z,959.98
2016-09-02T04:01:37.630Z,960.05
2016-09-02T04:02:37.623Z,960.01
2016-09-02T04:03:37.616Z,960.11
2016-09-02T04:04:37.607Z,960.12
2016-09-02T04:05:37.602Z,960.08
2016-09-02T04:06:37.595Z,960.12
2016-09-02T04:07:37.594Z,960.08
2016-09-02T04:08:37.580Z,960.04
2016-09-02T04:09:37.575Z,960.06
2016-09-02T04:10:37.568Z,959.96
2016-09-02T04:11:37.560Z,959.94
2016-09-02T04:12:37.558Z,959.92
2016-09-02T04:13:37.550Z,959.94
2016-09-02T04:14:37.541Z,959.91
2016-09-02T04:15:37.537Z,959.89
2016-09-02T04:16:37.528Z,959.93
2016-09-02T04:17:37.520Z,959.91
2016-09-02T04:18:37.519Z,959.97
2016-09-02T04:19:37.508Z,959.99
2016-09-02T04:20:37.500Z,960.01
2016-09-02T04:21:37.497Z,960.02
2016-09-02T04:22:37.488Z,960.03
2016-09-02T04:23:37.482Z,960.05
2016-09-02T04:24:37.477Z,960.02
2016-09-02T04:25:37.472Z,960.04
2016-09-02T04:26:37.463Z,960
2016-09-02T04:27:37.461Z,960.01
2016-09-02T04:28:37.450Z,959.97
2016-09-02T04:29:37.443Z,960.02
2016-09-02T04:30:37.435Z,959.98
2016-09-02T04:31:37.429Z,959.96
2016-09-02T04:32:37.426Z,959.96
2016-09-02T04:33:37.795Z,959.93
2016-09-02T04:34:37.410Z,959.99
2016-09-02T04:35:37.414Z,959.96
2016-09-02T04:36:37.398Z,959.93
2016-09-02T04:37:37.396Z,959.96
2016-09-02T04:38:37.386Z,959.95
2016-09-02T04:39:37.388Z,959.97
2016-09-02T04:40:37.377Z,959.98
2016-09-02T04:41:37.378Z,959.97
2016-09-02T04:42:37.367Z,959.94
2016-09-02T04:43:37.363Z,959.98
2016-09-02T04:44:37.351Z,959.99
2016-09-02T04:45:37.346Z,960.01
2016-09-02T04:46:37.336Z,959.98
2016-09-02T04:47:37.334Z,960.04
2016-09-02T04:48:37.330Z,960.02
2016-09-02T04:49:37.318Z,960.01
2016-09-02T04:50:37.318Z,960.04
2016-09-02T04:51:37.307Z,960.03
2016-09-02T04:52:37.301Z,960.02
2016-09-02T04:53:37.294Z,960
2016-09-02T04:54:37.287Z,960
2016-09-02T04:55:37.285Z,960.03
2016-09-02T04:56:37.273Z,959.99
2016-09-02T04:57:37.270Z,960.03
2016-09-02T04:58:37.261Z,959.98
2016-09-02T04:59:37.253Z,960.01
2016-09-02T05:00:37.248Z,960.03
2016-09-02T05:01:37.243Z,960.02
2016-09-02T05:02:37.235Z,960.01
2016-09-02T05:03:37.239Z,960.03
2016-09-02T05:04:37.221Z,959.98
2016-09-02T05:05:37.219Z,960
2016-09-02T05:06:37.217Z,959.99
2016-09-02T05:07:37.201Z,960.01
2016-09-02T05:08:37.198Z,959.97
2016-09-02T05:09:37.191Z,959.97
2016-09-02T05:10:37.186Z,959.97
2016-09-02T05:11:37.192Z,959.99
2016-09-02T05:12:37.170Z,959.91
2016-09-02T05:13:37.166Z,959.95
2016-09-02T05:14:37.159Z,959.94
2016-09-02T05:15:37.156Z,959.95
2016-09-02T05:16:37.146Z,959.92
2016-09-02T05:17:37.142Z,959.93
2016-09-02T05:18:37.135Z,959.96
2016-09-02T05:19:37.131Z,959.99
2016-09-02T05:20:37.124Z,960.01
2016-09-02T05:21:37.115Z,960.05
2016-09-02T05:22:37.109Z,960.07
2016-09-02T05:23:37.110Z,960.11
2016-09-02T05:24:37.100Z,960.15
2016-09-02T05:25:37.091Z,960.13
2016-09-02T05:26:37.083Z,960.15
2016-09-02T05:27:37.077Z,960.14
2016-09-02T05:28:37.070Z,960.15
2016-09-02T05:29:37.103Z,960.16
2016-09-02T05:30:37.061Z,960.2
2016-09-02T05:31:37.053Z,960.19
2016-09-02T05:32:37.049Z,960.16
2016-09-02T05:33:37.046Z,960.18
2016-09-02T05:34:37.043Z,960.18
2016-09-02T05:35:37.029Z,960.16
2016-09-02T05:36:37.024Z,960.15
2016-09-02T05:37:37.024Z,960.13
2016-09-02T05:38:37.013Z,960.1
2016-09-02T05:39:37.008Z,960.05
2016-09-02T05:40:37.002Z,960.06
2016-09-02T05:41:37.006Z,960
2016-09-02T05:42:36.992Z,959.99
2016-09-02T05:43:36.993Z,960
2016-09-02T05:44:36.980Z,960
2016-09-02T05:45:36.975Z,959.96
2016-09-02T05:46:36.969Z,960
2016-09-02T05:47:36.972Z,960.01
2016-09-02T05:48:36.958Z,960.03
2016-09-02T05:49:36.956Z,960.05
2016-09-02T05:50:36.947Z,960.07
2016-09-02T05:51:36.941Z,960.05
2016-09-02T05:52:36.937Z,960.05
2016-09-02T05:53:36.936Z,960.07
2016-09-02T05:54:36.939Z,960.05
2016-09-02T05:55:36.933Z,960.03
2016-09-02T05:56:36.917Z,960.03
2016-09-02T05:57:36.925Z,960.07
2016-09-02T05:58:36.914Z,960.06
2016-09-02T05:59:36.908Z,960.06
2016-09-02T06:00:36.897Z,960
2016-09-02T06:01:36.903Z,960.01
2016-09-02T06:02:36.887Z,960
2016-09-02T06:03:36.887Z,960.03
2016-09-02T06:04:36.886Z,959.98
2016-09-02T06:05:37.072Z,960.05
2016-09-02T06:06:36.875Z,960.02
2016-09-02T06:07:36.865Z,960.02
2016-09-02T06:08:36.859Z,959.99
2016-09-02T06:09:36.871Z,959.97
2016-09-02T06:10:36.852Z,959.98
2016-09-02T06:11:36.844Z,960
2016-09-02T06:12:36.840Z,960.03
2016-09-02T06:13:36.880Z,960.03
2016-09-02T06:14:36.834Z,960.06
2016-09-02T06:15:36.826Z,960.09
2016-09-02T06:16:36.818Z,960.08
2016-09-02T06:17:36.814Z,960.09
2016-09-02T06:18:36.810Z,960.1
2016-09-02T06:19:36.809Z,960.1
2016-09-02T06:20:36.833Z,960.1
2016-09-02T06:21:36.799Z,960.09
2016-09-02T06:22:36.796Z,960.06
2016-09-02T06:23:36.796Z,960.07
2016-09-02T06:24:36.785Z,960
2016-09-02T06:25:36.783Z,960.03
2016-09-02T06:26:36.803Z,959.98
2016-09-02T06:27:36.774Z,959.98
2016-09-02T06:28:36.778Z,959.95
2016-09-02T06:29:36.781Z,959.9
2016-09-02T06:30:36.760Z,959.89
2016-09-02T06:31:36.757Z,959.87
2016-09-02T06:32:36.755Z,959.87
2016-09-02T06:33:36.748Z,959.85
2016-09-02T06:34:36.899Z,959.86
2016-09-02T06:35:38.212Z,959.83
2016-09-02T06:36:36.730Z,959.86
2016-09-02T06:37:36.740Z,959.81
2016-09-02T06:38:36.727Z,959.82
2016-09-02T06:39:36.715Z,959.84
2016-09-02T06:40:36.716Z,959.81
2016-09-02T06:41:36.710Z,959.8
2016-09-02T06:42:36.798Z,959.78
2016-09-02T06:43:36.698Z,959.82
2016-09-02T06:44:36.694Z,959.81
2016-09-02T06:45:36.692Z,959.81
2016-09-02T06:46:36.695Z,959.8
2016-09-02T06:47:36.697Z,959.79
2016-09-02T06:48:36.688Z,959.83
2016-09-02T06:49:36.688Z,959.82
2016-09-02T06:50:36.675Z,959.82
2016-09-02T06:51:36.670Z,959.88
2016-09-02T06:52:36.664Z,959.86
2016-09-02T06:53:36.658Z,959.83
2016-09-02T06:54:36.658Z,959.85
2016-09-02T06:55:36.654Z,959.8
2016-09-02T06:56:36.656Z,959.77
2016-09-02T06:57:36.652Z,959.84
2016-09-02T06:58:36.651Z,959.82
2016-09-02T06:59:36.653Z,959.79
2016-09-02T07:00:36.639Z,959.77
2016-09-02T07:01:36.634Z,959.81
2016-09-02T07:02:36.632Z,959.79
2016-09-02T07:03:36.626Z,959.8
2016-09-02T07:04:36.624Z,959.84
2016-09-02T07:05:36.622Z,959.84
2016-09-02T07:06:36.619Z,959.79
2016-09-02T07:07:36.616Z,959.76
2016-09-02T07:08:36.644Z,959.81
2016-09-02T07:09:36.695Z,959.79
2016-09-02T07:10:36.607Z,959.8
2016-09-02T07:11:36.603Z,959.76
2016-09-02T07:12:36.599Z,959.78
2016-09-02T07:13:36.602Z,959.74
2016-09-02T07:14:36.594Z,959.8
2016-09-02T07:15:36.592Z,959.82
2016-09-02T07:16:36.668Z,959.81
2016-09-02T07:17:36.593Z,959.84
2016-09-02T07:18:36.588Z,959.84
2016-09-02T07:19:36.588Z,959.88
2016-09-02T07:20:36.578Z,959.86
2016-09-02T07:21:36.593Z,959.85
2016-09-02T07:22:36.578Z,959.86
2016-09-02T07:23:36.571Z,959.83
2016-09-02T07:24:36.609Z,959.87
2016-09-02T07:25:36.572Z,959.82
2016-09-02T07:26:36.570Z,959.84
2016-09-02T07:27:36.566Z,959.85
2016-09-02T07:28:36.568Z,959.87
2016-09-02T07:29:36.562Z,959.88
2016-09-02T07:30:36.564Z,959.9
2016-09-02T07:31:36.557Z,959.91
2016-09-02T07:32:36.558Z,959.9
2016-09-02T07:33:36.550Z,959.93
2016-09-02T07:34:36.547Z,959.93
2016-09-02T07:35:36.551Z,960
2016-09-02T07:36:36.545Z,959.96
2016-09-02T07:37:36.546Z,959.97
2016-09-02T07:38:36.560Z,959.96
2016-09-02T07:39:36.543Z,959.96
2016-09-02T07:40:36.543Z,959.98
2016-09-02T07:41:36.556Z,959.95
2016-09-02T07:42:36.550Z,959.94
2016-09-02T07:43:36.536Z,959.97
2016-09-02T07:44:36.544Z,959.93
2016-09-02T07:45:36.535Z,959.95
2016-09-02T07:46:36.534Z,959.93
2016-09-02T07:47:36.535Z,959.96
2016-09-02T07:48:36.539Z,959.99
2016-09-02T07:49:36.537Z,959.96
2016-09-02T07:50:36.531Z,959.94
2016-09-02T07:51:36.532Z,959.95
2016-09-02T07:52:36.539Z,959.95
2016-09-02T07:53:36.535Z,959.95
2016-09-02T07:54:36.546Z,959.96
2016-09-02T07:55:36.553Z,959.93
2016-09-02T07:56:36.529Z,959.96
2016-09-02T07:57:36.530Z,959.96
2016-09-02T07:58:36.529Z,959.97
2016-09-02T07:59:36.529Z,959.97
2016-09-02T08:00:36.528Z,959.98
2016-09-02T08:01:36.527Z,959.97
2016-09-02T08:02:36.528Z,959.96
2016-09-02T08:03:36.528Z,959.95
2016-09-02T08:04:36.606Z,959.96
2016-09-02T08:05:36.529Z,959.99
2016-09-02T08:06:36.530Z,959.98
2016-09-02T08:07:36.532Z,960.03
2016-09-02T08:08:36.529Z,960.02
2016-09-02T08:09:36.527Z,960
2016-09-02T08:10:36.526Z,960.01
2016-09-02T08:11:36.529Z,960.01
2016-09-02T08:12:36.524Z,960.02
2016-09-02T08:13:36.528Z,960.02
2016-09-02T08:14:36.525Z,960.07
2016-09-02T08:15:36.534Z,960.04
2016-09-02T08:16:36.529Z,960.04
2016-09-02T08:17:36.526Z,960.04
2016-09-02T08:18:36.528Z,960.05
2016-09-02T08:19:36.527Z,960.05
2016-09-02T08:20:36.531Z,960.07
2016-09-02T08:21:36.533Z,960.07
2016-09-02T08:22:36.530Z,960.06
2016-09-02T08:23:36.530Z,960.04
2016-09-02T08:24:36.530Z,960.05
2016-09-02T08:25:36.532Z,960.09
2016-09-02T08:26:36.527Z,960.05
2016-09-02T08:27:36.526Z,960.09
2016-09-02T08:28:36.527Z,960.1
2016-09-02T08:29:36.530Z,960.08
2016-09-02T08:30:36.535Z,960.1
2016-09-02T08:31:36.530Z,960.1
2016-09-02T08:32:36.540Z,960.1
2016-09-02T08:33:36.531Z,960.1
2016-09-02T08:34:36.530Z,960.11
2016-09-02T08:35:36.532Z,960.11
2016-09-02T08:36:36.539Z,960.08
2016-09-02T08:37:36.777Z,960.06
2016-09-02T08:38:36.531Z,960.07
2016-09-02T08:39:36.531Z,960.1
2016-09-02T08:40:36.572Z,960.09
2016-09-02T08:41:36.536Z,960.13
2016-09-02T08:42:36.537Z,960.09
2016-09-02T08:43:36.544Z,960.15
2016-09-02T08:44:36.542Z,960.12
2016-09-02T08:45:36.548Z,960.13
2016-09-02T08:46:36.535Z,960.14
2016-09-02T08:47:36.544Z,960.11
2016-09-02T08:48:36.540Z,960.13
2016-09-02T08:49:36.547Z,960.12
2016-09-02T08:50:36.545Z,960.09
2016-09-02T08:51:36.546Z,960.12
2016-09-02T08:52:36.548Z,960.08
2016-09-02T08:53:36.544Z,960.06
2016-09-02T08:54:36.540Z,960.08
2016-09-02T08:55:36.546Z,960.08
2016-09-02T08:56:36.543Z,960.1
2016-09-02T08:57:36.556Z,960.07
2016-09-02T08:58:36.543Z,960.05
2016-09-02T08:59:36.547Z,960.05
2016-09-02T09:00:36.549Z,960.04
2016-09-02T09:01:36.551Z,960.06
2016-09-02T09:02:36.550Z,960.03
2016-09-02T09:03:36.551Z,960.02
2016-09-02T09:04:36.553Z,960.02
2016-09-02T09:05:36.563Z,960.02
2016-09-02T09:06:36.556Z,960.05
2016-09-02T09:07:36.566Z,960.01
2016-09-02T09:08:36.550Z,960.04
2016-09-02T09:09:36.559Z,960.05
2016-09-02T09:10:36.563Z,960.06
2016-09-02T09:11:36.557Z,960.02
2016-09-02T09:12:36.553Z,960.01
2016-09-02T09:13:36.553Z,960.03
2016-09-02T09:14:36.559Z,960.02
2016-09-02T09:15:36.556Z,959.97
2016-09-02T09:16:36.560Z,959.99
2016-09-02T09:17:36.564Z,960
2016-09-02T09:18:36.556Z,959.97
2016-09-02T09:19:36.562Z,959.94
2016-09-02T09:20:36.561Z,959.93
2016-09-02T09:21:36.563Z,959.93
2016-09-02T09:22:36.557Z,959.96
2016-09-02T09:23:36.562Z,959.96
2016-09-02T09:24:36.561Z,959.91
2016-09-02T09:25:36.562Z,959.89
2016-09-02T09:26:36.557Z,959.91
2016-09-02T09:27:36.766Z,959.92
2016-09-02T09:28:36.564Z,959.92
2016-09-02T09:29:36.568Z,959.93
2016-09-02T09:30:36.560Z,959.89
2016-09-02T09:31:36.563Z,959.87
2016-09-02T09:32:36.561Z,959.86
2016-09-02T09:33:36.564Z,959.88
2016-09-02T09:34:36.562Z,959.88
2016-09-02T09:35:36.568Z,959.87
2016-09-02T09:36:36.574Z,959.86
2016-09-02T09:37:36.584Z,959.87
2016-09-02T09:38:36.569Z,959.89
2016-09-02T09:39:36.570Z,959.85
2016-09-02T09:40:36.571Z,959.8
2016-09-02T09:41:36.579Z,959.86
2016-09-02T09:42:36.569Z,959.83
2016-09-02T09:43:36.571Z,959.81
2016-09-02T09:44:36.572Z,959.83
2016-09-02T09:45:36.572Z,959.84
2016-09-02T09:46:36.573Z,959.82
2016-09-02T09:47:36.573Z,959.81
2016-09-02T09:48:36.594Z,959.79
2016-09-02T09:49:36.587Z,959.79
2016-09-02T09:50:36.579Z,959.72
2016-09-02T09:51:36.578Z,959.73
2016-09-02T09:52:36.585Z,959.68
2016-09-02T09:53:36.582Z,959.69
2016-09-02T09:54:36.582Z,959.69
2016-09-02T09:55:36.581Z,959.71
2016-09-02T09:56:36.582Z,959.7
2016-09-02T09:57:36.592Z,959.7
2016-09-02T09:58:36.587Z,959.71
2016-09-02T09:59:36.584Z,959.69
2016-09-02T10:00:36.595Z,959.7
2016-09-02T10:01:36.596Z,959.67
2016-09-02T10:02:36.590Z,959.66
2016-09-02T10:03:36.587Z,959.66
2016-09-02T10:04:36.622Z,959.67
2016-09-02T10:05:36.591Z,959.65
2016-09-02T10:06:36.599Z,959.68
2016-09-02T10:07:36.594Z,959.7
2016-09-02T10:08:36.594Z,959.72
2016-09-02T10:09:36.593Z,959.69
2016-09-02T10:10:36.594Z,959.68
2016-09-02T10:11:36.596Z,959.69
2016-09-02T10:12:36.597Z,959.73
2016-09-02T10:13:36.600Z,959.72
2016-09-02T10:14:36.604Z,959.71
2016-09-02T10:15:36.599Z,959.74
2016-09-02T10:16:36.598Z,959.74
2016-09-02T10:17:36.601Z,959.74
2016-09-02T10:18:36.607Z,959.7
2016-09-02T10:19:36.602Z,959.73
2016-09-02T10:20:36.602Z,959.73
2016-09-02T10:21:36.608Z,959.72
2016-09-02T10:22:36.608Z,959.66
2016-09-02T10:23:36.610Z,959.69
2016-09-02T10:24:36.608Z,959.7
2016-09-02T10:25:36.622Z,959.66
2016-09-02T10:26:36.611Z,959.67
2016-09-02T10:27:36.611Z,959.65
2016-09-02T10:28:36.615Z,959.67
2016-09-02T10:29:36.615Z,959.65
2016-09-02T10:30:36.614Z,959.65
2016-09-02T10:31:36.611Z,959.64
2016-09-02T10:32:36.611Z,959.66
2016-09-02T10:33:36.615Z,959.59
2016-09-02T10:34:36.617Z,959.59
2016-09-02T10:35:36.616Z,959.6
2016-09-02T10:36:36.616Z,959.59
2016-09-02T10:37:36.619Z,959.54
2016-09-02T10:38:36.615Z,959.53
2016-09-02T10:39:36.619Z,959.54
2016-09-02T10:40:36.618Z,959.52
2016-09-02T10:41:36.621Z,959.47
2016-09-02T10:42:36.620Z,959.5
2016-09-02T10:43:36.620Z,959.52
2016-09-02T10:44:36.628Z,959.46
2016-09-02T10:45:36.625Z,959.47
2016-09-02T10:46:36.629Z,959.48
2016-09-02T10:47:36.623Z,959.49
2016-09-02T10:48:36.627Z,959.47
2016-09-02T10:49:36.631Z,959.47
2016-09-02T10:50:36.632Z,959.48
2016-09-02T10:51:38.133Z,959.48
2016-09-02T10:52:36.642Z,959.46
2016-09-02T10:53:36.630Z,959.47
2016-09-02T10:54:36.634Z,959.45
2016-09-02T10:55:36.774Z,959.41
2016-09-02T10:56:37.261Z,959.43
2016-09-02T10:58:36.694Z,959.36
2016-09-02T10:59:36.841Z,959.36
2016-09-02T11:00:36.639Z,959.35
2016-09-02T11:01:36.638Z,959.32
2016-09-02T11:02:36.638Z,959.33
2016-09-02T11:03:36.649Z,959.33
2016-09-02T11:04:36.644Z,959.3
2016-09-02T11:05:36.655Z,959.3
2016-09-02T11:06:36.663Z,959.36
2016-09-02T11:07:36.679Z,959.29
2016-09-02T11:08:36.645Z,959.28
2016-09-02T11:09:36.648Z,959.25
2016-09-02T11:10:36.650Z,959.22
2016-09-02T11:11:36.651Z,959.19
2016-09-02T11:12:36.654Z,959.18
2016-09-02T11:13:36.652Z,959.14
2016-09-02T11:14:36.665Z,959.13
2016-09-02T11:15:36.667Z,959.14
2016-09-02T11:16:36.652Z,959.11
2016-09-02T11:17:36.663Z,959.13
2016-09-02T11:18:36.656Z,959.16
2016-09-02T11:19:36.865Z,959.18
2016-09-02T11:20:36.659Z,959.17
2016-09-02T11:21:36.657Z,959.12
2016-09-02T11:22:36.668Z,959.15
2016-09-02T11:23:36.880Z,959.12
2016-09-02T11:24:36.661Z,959.12
2016-09-02T11:25:36.661Z,959.14
2016-09-02T11:26:36.663Z,959.07
2016-09-02T11:27:36.669Z,959.12
2016-09-02T11:28:36.678Z,959.09
2016-09-02T11:29:36.667Z,959.05
2016-09-02T11:30:37.843Z,959.07
2016-09-02T11:31:36.952Z,959.02
2016-09-02T11:35:23.707Z,959.05
2016-09-02T11:36:23.666Z,959.04
2016-09-02T11:37:23.671Z,959.06
2016-09-02T11:38:23.687Z,959.05
2016-09-02T11:39:23.685Z,958.98
2016-09-02T11:40:23.671Z,959
2016-09-02T11:41:23.677Z,958.97
2016-09-02T11:42:23.684Z,958.98
2016-09-02T11:43:23.728Z,958.99
2016-09-02T11:44:23.683Z,958.98
2016-09-02T11:45:23.700Z,958.91
2016-09-02T11:46:23.686Z,958.93
2016-09-02T11:47:23.683Z,958.92
2016-09-02T11:48:23.688Z,958.92
2016-09-02T11:49:23.686Z,958.9
2016-09-02T11:50:23.691Z,958.87
2016-09-02T11:51:23.688Z,958.94
2016-09-02T11:52:23.689Z,958.93
2016-09-02T11:53:23.694Z,958.94
2016-09-02T11:54:23.696Z,958.95
2016-09-02T11:55:23.699Z,958.93
2016-09-02T11:56:23.716Z,958.95
2016-09-02T11:57:23.699Z,958.94
2016-09-02T11:58:23.699Z,958.94
2016-09-02T11:59:23.702Z,958.96
2016-09-02T12:00:23.700Z,958.95
2016-09-02T12:01:23.716Z,958.92
2016-09-02T12:02:23.713Z,958.98
2016-09-02T12:03:23.710Z,958.97
2016-09-02T12:04:23.709Z,958.98
2016-09-02T12:05:23.710Z,958.92
2016-09-02T12:06:23.717Z,958.96
2016-09-02T12:07:23.724Z,958.95
2016-09-02T12:08:23.719Z,958.95
2016-09-02T12:09:23.719Z,958.9
2016-09-02T12:10:23.905Z,958.87
2016-09-02T12:11:23.722Z,958.83
2016-09-02T12:12:23.732Z,958.86
2016-09-02T12:13:23.740Z,958.9
2016-09-02T12:14:23.733Z,958.93
2016-09-02T12:15:23.732Z,958.89
2016-09-02T12:16:23.739Z,958.88
2016-09-02T12:17:23.738Z,958.91
2016-09-02T12:18:23.748Z,958.87
2016-09-02T12:19:23.738Z,958.86
2016-09-02T12:20:23.788Z,958.83
2016-09-02T12:21:23.750Z,958.82
2016-09-02T12:22:23.742Z,958.84
2016-09-02T12:23:23.744Z,958.81
2016-09-02T12:24:23.763Z,958.82
2016-09-02T12:25:23.746Z,958.78
2016-09-02T12:26:23.757Z,958.78
2016-09-02T12:27:23.754Z,958.74
2016-09-02T12:28:23.753Z,958.76
2016-09-02T12:29:23.770Z,958.7
2016-09-02T12:30:23.758Z,958.71
2016-09-02T12:31:23.765Z,958.66
2016-09-02T12:32:23.761Z,958.62
2016-09-02T12:33:23.766Z,958.6
2016-09-02T12:34:23.763Z,958.58
2016-09-02T12:35:23.771Z,958.59
2016-09-02T12:36:23.770Z,958.55